Time;durP1;ratioP1;P1;durP2;ratioP2;P2;SDS_P1;SDS_P2;PMS_P1;PMS_P2;Temp;Humidity;BMP_temperature;BMP_pressure;BME280_temperature;BME280_humidity;BME280_pressure;Samples;Min_cycle;Max_cycle;Signal;HPM_P1;HPM_P2
2024/03/16 00:01:41;;;;;;;44.45;9.00;;;11.80;99.90;;;;;;5115339;27;20035;-62
2024/03/16 00:04:07;;;;;;;43.17;8.32;;;11.80;99.90;;;;;;5112695;27;20497;-62
2024/03/16 00:06:33;;;;;;;36.85;9.30;;;11.80;99.90;;;;;;5115863;27;20100;-62
2024/03/16 00:08:59;;;;;;;37.95;9.95;;;11.90;99.90;;;;;;5116662;27;20039;-62
2024/03/16 00:11:27;;;;;;;49.72;9.63;;;11.80;99.90;;;;;;5108987;28;20046;-63
2024/03/16 00:13:52;;;;;;;43.95;8.88;;;11.70;99.90;;;;;;5107479;28;20043;-62
2024/03/16 00:16:19;;;;;;;41.63;8.38;;;11.70;99.90;;;;;;5120925;27;20054;-61
2024/03/16 00:18:45;;;;;;;42.67;8.90;;;11.80;99.90;;;;;;5116694;27;20054;-62
2024/03/16 00:21:10;;;;;;;40.08;8.43;;;11.70;99.90;;;;;;5121738;27;20394;-62
2024/03/16 00:23:36;;;;;;;40.35;8.23;;;11.70;99.90;;;;;;5123723;27;20043;-64
2024/03/16 00:26:02;;;;;;;37.47;9.68;;;11.60;99.90;;;;;;5122287;27;20131;-62
2024/03/16 00:28:28;;;;;;;44.10;10.52;;;11.60;99.90;;;;;;5118481;27;20143;-62
2024/03/16 00:30:53;;;;;;;41.08;8.95;;;11.50;99.90;;;;;;5116608;27;20405;-62
2024/03/16 00:33:19;;;;;;;43.78;10.88;;;11.50;99.90;;;;;;5112481;27;20039;-62
2024/03/16 00:35:45;;;;;;;46.25;10.77;;;11.30;99.90;;;;;;5122751;27;20043;-62
2024/03/16 00:38:10;;;;;;;43.78;10.80;;;11.40;99.90;;;;;;5126026;27;20047;-62
2024/03/16 00:40:36;;;;;;;45.72;10.45;;;11.30;99.90;;;;;;5121261;27;20051;-61
2024/03/16 00:43:02;;;;;;;37.72;11.07;;;11.30;99.90;;;;;;5118787;27;20035;-60
2024/03/16 00:45:28;;;;;;;43.85;11.00;;;11.30;99.90;;;;;;5114514;27;20039;-61
2024/03/16 00:47:56;;;;;;;41.70;11.88;;;11.20;99.90;;;;;;5120119;27;20039;-61
2024/03/16 00:50:21;;;;;;;36.15;10.25;;;11.20;99.90;;;;;;5115021;27;20043;-61
2024/03/16 00:52:47;;;;;;;38.25;10.38;;;11.20;99.90;;;;;;5116218;27;20043;-61
2024/03/16 00:55:13;;;;;;;44.13;10.85;;;11.10;99.90;;;;;;5119422;27;20401;-61
2024/03/16 00:57:39;;;;;;;43.75;11.20;;;11.10;99.90;;;;;;5111217;27;20043;-61
2024/03/16 01:00:08;;;;;;;49.78;11.38;;;11.10;99.90;;;;;;5116064;27;20728;-61
2024/03/16 01:02:34;;;;;;;;;;;11.20;99.90;;;;;;5112386;27;20039;-61
2024/03/16 01:05:00;;;;;;;45.45;10.70;;;11.10;99.90;;;;;;5118421;27;19944;-61
2024/03/16 01:07:26;;;;;;;52.17;10.57;;;11.10;99.90;;;;;;5121398;27;20106;-61
2024/03/16 01:09:52;;;;;;;46.90;11.25;;;11.10;99.90;;;;;;5114066;27;20053;-62
2024/03/16 01:12:17;;;;;;;52.15;10.73;;;11.10;99.90;;;;;;5113243;27;20049;-61
2024/03/16 01:14:43;;;;;;;50.10;11.13;;;11.20;99.90;;;;;;5122571;27;20492;-61
2024/03/16 01:17:09;;;;;;;37.45;11.38;;;11.20;99.90;;;;;;5128171;27;20039;-61
2024/03/16 01:19:36;;;;;;;43.03;10.27;;;11.00;99.90;;;;;;5116210;27;20055;-61
2024/03/16 01:22:02;;;;;;;36.60;9.05;;;11.20;99.90;;;;;;5125463;27;20045;-60
2024/03/16 01:24:28;;;;;;;34.40;8.70;;;11.00;99.90;;;;;;5119466;27;20054;-62
2024/03/16 01:26:54;;;;;;;35.10;8.55;;;11.10;99.90;;;;;;5117251;27;20035;-61
2024/03/16 01:29:19;;;;;;;45.17;10.45;;;11.10;99.90;;;;;;5121358;27;20501;-61
2024/03/16 01:31:45;;;;;;;42.78;8.55;;;11.00;99.90;;;;;;5119611;27;20071;-61
2024/03/16 01:34:11;;;;;;;38.00;10.20;;;11.00;99.90;;;;;;5119835;27;20046;-61
2024/03/16 01:36:36;;;;;;;37.65;8.63;;;11.00;99.90;;;;;;5124443;27;20825;-61
2024/03/16 01:39:03;;;;;;;37.85;8.48;;;10.90;99.90;;;;;;5114590;27;20042;-61
2024/03/16 01:41:28;;;;;;;34.45;8.00;;;11.00;99.90;;;;;;5118790;27;20043;-61
2024/03/16 01:44:09;;;;;;;28.70;6.60;;;10.90;99.90;;;;;;5123652;27;20107;-61
2024/03/16 01:46:35;;;;;;;23.95;5.13;;;10.80;99.90;;;;;;5118647;27;20096;-62
2024/03/16 01:49:01;;;;;;;19.25;4.85;;;10.80;99.90;;;;;;5115229;27;20039;-62
2024/03/16 01:51:30;;;;;;;15.20;4.80;;;10.70;99.90;;;;;;5122885;27;20494;-63
2024/03/16 01:53:56;;;;;;;17.75;5.22;;;10.60;99.90;;;;;;5113730;27;20112;-63
2024/03/16 01:56:22;;;;;;;21.20;5.63;;;10.60;99.90;;;;;;5122231;27;20563;-63
2024/03/16 01:58:48;;;;;;;18.08;5.13;;;10.60;99.90;;;;;;5114652;27;20047;-62
2024/03/16 02:01:14;;;;;;;10.88;3.42;;;10.40;99.90;;;;;;5113742;27;20519;-62
2024/03/16 02:03:40;;;;;;;10.93;2.95;;;10.40;99.90;;;;;;5120784;27;20046;-61
2024/03/16 02:06:07;;;;;;;9.27;3.10;;;10.30;99.90;;;;;;5121616;27;20798;-61
2024/03/16 02:08:32;;;;;;;9.50;3.00;;;10.10;99.90;;;;;;5117093;27;20040;-63
2024/03/16 02:10:58;;;;;;;14.70;3.20;;;10.10;99.90;;;;;;5115750;27;20124;-63
2024/03/16 02:13:24;;;;;;;8.93;1.70;;;10.10;99.90;;;;;;5122001;27;20081;-63
2024/03/16 02:15:50;;;;;;;5.75;1.52;;;10.00;99.90;;;;;;5120948;27;20039;-63
2024/03/16 02:18:16;;;;;;;4.65;1.30;;;9.90;99.90;;;;;;5120437;27;20104;-63
2024/03/16 02:20:41;;;;;;;7.72;1.55;;;9.80;99.90;;;;;;5123670;27;20481;-62
2024/03/16 02:23:07;;;;;;;6.32;1.30;;;9.60;99.90;;;;;;5123668;27;20108;-62
2024/03/16 02:25:33;;;;;;;5.97;1.67;;;9.60;99.90;;;;;;5121246;27;20486;-62
2024/03/16 02:27:59;;;;;;;3.03;1.30;;;9.70;99.90;;;;;;5115249;27;20043;-62
2024/03/16 02:30:24;;;;;;;4.90;1.67;;;9.60;99.90;;;;;;5118202;27;20527;-62
2024/03/16 02:32:50;;;;;;;6.93;1.60;;;9.60;99.90;;;;;;5112553;27;20805;-63
2024/03/16 02:35:16;;;;;;;4.68;1.98;;;9.50;99.90;;;;;;5114621;27;20050;-63
2024/03/16 02:37:42;;;;;;;4.55;1.73;;;9.50;99.90;;;;;;5115307;27;20039;-63
2024/03/16 02:40:11;;;;;;;5.45;1.05;;;9.50;99.90;;;;;;5121545;27;20483;-63
2024/03/16 02:42:39;;;;;;;5.18;1.13;;;9.60;99.90;;;;;;5118806;27;20046;-63
2024/03/16 02:45:05;;;;;;;6.30;1.90;;;9.50;99.90;;;;;;5111662;27;20063;-63
2024/03/16 02:47:31;;;;;;;6.57;1.80;;;9.50;99.90;;;;;;5119023;27;20287;-62
2024/03/16 02:49:57;;;;;;;4.80;1.45;;;9.50;99.90;;;;;;5117948;27;20047;-63
2024/03/16 02:52:23;;;;;;;6.25;1.23;;;9.50;99.90;;;;;;5117296;27;20043;-63
2024/03/16 02:54:49;;;;;;;3.65;1.45;;;9.40;99.90;;;;;;5112301;27;20087;-61
2024/03/16 02:57:14;;;;;;;5.15;1.42;;;9.50;99.90;;;;;;5119629;27;20039;-62
2024/03/16 02:59:40;;;;;;;4.70;1.40;;;9.40;99.90;;;;;;5122708;27;20063;-62
2024/03/16 03:02:06;;;;;;;8.65;1.33;;;9.40;99.90;;;;;;5120192;27;20042;-62
2024/03/16 03:04:32;;;;;;;8.18;1.55;;;9.50;99.90;;;;;;5124682;27;20057;-62
2024/03/16 03:06:57;;;;;;;5.63;1.10;;;9.40;99.90;;;;;;5115599;28;21397;-63
2024/03/16 03:09:23;;;;;;;4.38;1.10;;;9.50;99.90;;;;;;5116864;27;20036;-62
2024/03/16 03:11:49;;;;;;;5.97;0.98;;;9.30;99.90;;;;;;5122602;28;20051;-62
2024/03/16 03:14:15;;;;;;;7.88;1.30;;;9.40;99.90;;;;;;5119498;27;20397;-62
2024/03/16 03:16:41;;;;;;;5.55;1.42;;;9.30;99.90;;;;;;5120311;27;20495;-63
2024/03/16 03:19:06;;;;;;;4.82;1.20;;;9.30;99.90;;;;;;5120025;27;20054;-62
2024/03/16 03:21:32;;;;;;;6.25;1.10;;;9.40;99.90;;;;;;5114121;27;20039;-62
2024/03/16 03:23:59;;;;;;;5.75;1.17;;;9.30;99.90;;;;;;5116589;28;20743;-61
2024/03/16 03:26:28;;;;;;;10.13;1.73;;;9.20;99.90;;;;;;5117088;28;20071;-62
2024/03/16 03:28:54;;;;;;;7.80;1.90;;;9.20;99.90;;;;;;5114376;28;20043;-62
2024/03/16 03:31:20;;;;;;;12.18;2.08;;;9.00;99.90;;;;;;5118799;28;20399;-62
2024/03/16 03:33:46;;;;;;;10.82;2.28;;;8.90;99.90;;;;;;5113609;27;20042;-62
2024/03/16 03:36:11;;;;;;;9.10;2.40;;;8.90;99.90;;;;;;5114479;27;20035;-62
2024/03/16 03:38:37;;;;;;;17.60;3.75;;;8.80;99.90;;;;;;5122582;27;20561;-63
2024/03/16 03:41:03;;;;;;;15.07;3.13;;;8.80;99.90;;;;;;5118482;27;20035;-62
2024/03/16 03:43:30;;;;;;;11.95;2.63;;;8.80;99.90;;;;;;5121266;27;20386;-62
2024/03/16 03:45:57;;;;;;;14.27;3.03;;;8.70;99.90;;;;;;5127368;27;20043;-62
2024/03/16 03:50:53;;;;;;;16.40;3.17;;;8.60;99.90;;;;;;5107712;27;20127;-62
2024/03/16 03:53:20;;;;;;;22.65;3.95;;;8.60;99.90;;;;;;5119663;27;20043;-61
2024/03/16 03:55:46;;;;;;;18.20;3.03;;;8.60;99.90;;;;;;5116653;27;20105;-62
2024/03/16 03:58:12;;;;;;;17.40;3.20;;;8.70;99.90;;;;;;5122693;27;20042;-62
2024/03/16 04:00:38;;;;;;;19.58;2.78;;;8.60;99.90;;;;;;5124338;27;20043;-61
2024/03/16 04:03:06;;;;;;;20.80;3.10;;;8.70;99.90;;;;;;5114594;27;20509;-62
2024/03/16 04:05:33;;;;;;;19.87;3.73;;;8.70;99.90;;;;;;5118752;27;20510;-62
2024/03/16 04:07:59;;;;;;;21.17;3.78;;;8.60;99.90;;;;;;5120727;27;20122;-62
2024/03/16 04:10:25;;;;;;;23.50;4.00;;;8.60;99.90;;;;;;5115625;27;20030;-62
2024/03/16 04:12:50;;;;;;;23.83;5.05;;;8.60;99.90;;;;;;5121354;27;20054;-63
2024/03/16 04:15:16;;;;;;;25.80;3.53;;;8.60;99.90;;;;;;5121064;27;20573;-62
2024/03/16 04:17:42;;;;;;;19.95;3.72;;;8.60;99.90;;;;;;5128821;27;20518;-62
2024/03/16 04:20:12;;;;;;;22.50;4.30;;;8.60;99.90;;;;;;5121550;27;20035;-62
2024/03/16 04:22:41;;;;;;;20.65;3.53;;;8.60;99.90;;;;;;5118318;27;21175;-62
2024/03/16 04:25:09;;;;;;;20.85;4.07;;;8.60;99.90;;;;;;5114683;27;20044;-62
2024/03/16 04:27:35;;;;;;;23.05;3.92;;;8.50;99.90;;;;;;5116393;27;20046;-62
2024/03/16 04:30:02;;;;;;;21.35;3.15;;;8.50;99.90;;;;;;5112263;27;20062;-62
2024/03/16 04:32:28;;;;;;;20.75;2.70;;;8.50;99.90;;;;;;5115898;27;20535;-63
2024/03/16 04:34:54;;;;;;;16.80;2.30;;;8.40;99.90;;;;;;5126405;27;20085;-62
2024/03/16 04:37:20;;;;;;;18.42;3.25;;;8.40;99.90;;;;;;5125322;27;20541;-61
2024/03/16 04:39:47;;;;;;;10.02;2.17;;;8.30;99.90;;;;;;5113382;27;20051;-61
2024/03/16 04:42:16;;;;;;;19.63;2.88;;;8.30;99.90;;;;;;5114699;27;20921;-62
2024/03/16 04:44:42;;;;;;;12.10;2.25;;;8.20;99.90;;;;;;5108917;27;20661;-62
2024/03/16 04:47:08;;;;;;;12.40;2.47;;;8.20;99.90;;;;;;5115441;27;20035;-62
2024/03/16 04:49:34;;;;;;;8.07;2.05;;;8.20;99.90;;;;;;5118188;27;20450;-62
2024/03/16 04:51:59;;;;;;;14.27;1.90;;;8.10;99.90;;;;;;5116917;27;20035;-62
2024/03/16 04:54:25;;;;;;;13.57;1.85;;;8.20;99.90;;;;;;5118963;27;20038;-61
2024/03/16 04:56:51;;;;;;;20.42;2.63;;;8.30;99.90;;;;;;5115535;27;20506;-62
2024/03/16 04:59:17;;;;;;;13.30;2.22;;;8.20;99.90;;;;;;5116979;27;20080;-61
2024/03/16 05:01:43;;;;;;;12.25;2.25;;;8.20;99.90;;;;;;5118455;27;20040;-62
2024/03/16 05:04:08;;;;;;;12.35;2.28;;;8.20;99.90;;;;;;5115971;27;20503;-62
2024/03/16 05:06:34;;;;;;;12.38;2.38;;;8.20;99.90;;;;;;5116284;27;20112;-61
2024/03/16 05:09:10;;;;;;;14.98;2.53;;;8.20;99.90;;;;;;5115927;27;20035;-62
2024/03/16 05:11:37;;;;;;;13.07;2.35;;;8.20;99.90;;;;;;5118615;27;20144;-61
2024/03/16 05:14:06;;;;;;;9.27;2.03;;;8.20;99.90;;;;;;5116361;27;20050;-61
2024/03/16 05:16:35;;;;;;;;;;;8.20;99.90;;;;;;5125537;27;20508;-61
2024/03/16 05:19:04;;;;;;;5.68;1.60;;;8.20;99.90;;;;;;5122090;27;19923;-62
2024/03/16 05:21:31;;;;;;;10.38;2.50;;;8.20;99.90;;;;;;5119258;27;20138;-62
2024/03/16 05:23:57;;;;;;;13.27;2.10;;;8.20;99.90;;;;;;5117812;27;20039;-62
2024/03/16 05:26:23;;;;;;;10.77;2.20;;;8.20;99.90;;;;;;5120034;27;20173;-63
2024/03/16 05:28:49;;;;;;;13.65;2.25;;;8.20;99.90;;;;;;5117272;27;20043;-63
2024/03/16 05:31:15;;;;;;;9.52;2.03;;;8.20;99.90;;;;;;5108154;27;20043;-62
2024/03/16 05:33:42;;;;;;;13.18;2.47;;;8.20;99.90;;;;;;5114874;27;20031;-62
2024/03/16 05:36:12;;;;;;;14.27;2.72;;;8.30;99.90;;;;;;5121190;27;20043;-62
2024/03/16 05:38:39;;;;;;;15.30;2.67;;;8.30;99.90;;;;;;5121842;27;20575;-62
2024/03/16 05:41:06;;;;;;;12.63;2.28;;;8.30;99.90;;;;;;5110177;27;20039;-51
2024/03/16 05:43:33;;;;;;;10.75;2.13;;;8.30;99.90;;;;;;5115932;27;20043;-63
2024/03/16 05:45:58;;;;;;;13.80;1.88;;;8.30;99.90;;;;;;5117344;27;20500;-62
2024/03/16 05:48:24;;;;;;;8.10;1.95;;;8.30;99.90;;;;;;5115146;27;20043;-61
2024/03/16 05:50:50;;;;;;;12.13;1.80;;;8.30;99.90;;;;;;5116289;27;20047;-61
2024/03/16 05:53:16;;;;;;;9.15;1.60;;;8.30;99.90;;;;;;5119680;27;20074;-61
2024/03/16 05:55:42;;;;;;;5.40;1.27;;;8.30;99.90;;;;;;5117172;27;20120;-61
2024/03/16 05:58:08;;;;;;;9.20;1.85;;;8.20;99.90;;;;;;5129081;27;20035;-61
2024/03/16 06:00:37;;;;;;;8.07;1.70;;;8.30;99.90;;;;;;5128730;27;20042;-60
2024/03/16 06:03:04;;;;;;;11.50;1.50;;;8.20;99.90;;;;;;5126151;27;20131;-61
2024/03/16 06:05:33;;;;;;;7.50;1.85;;;8.20;99.90;;;;;;5127764;27;20031;-62
2024/03/16 06:08:02;;;;;;;19.88;2.55;;;8.20;99.90;;;;;;5124386;27;20034;-61
2024/03/16 06:10:28;;;;;;;7.65;1.30;;;8.30;99.90;;;;;;5128647;27;20039;-61
2024/03/16 06:12:54;;;;;;;6.10;1.30;;;8.30;99.90;;;;;;5128422;27;20042;-62
2024/03/16 06:15:19;;;;;;;9.50;1.40;;;8.30;99.90;;;;;;5124795;27;20133;-62
2024/03/16 06:17:46;;;;;;;7.40;2.42;;;8.30;99.90;;;;;;5123201;27;20489;-61
2024/03/16 06:20:15;;;;;;;15.75;2.55;;;8.30;99.90;;;;;;5125017;27;20039;-62
2024/03/16 06:22:41;;;;;;;8.32;1.65;;;8.30;99.90;;;;;;5128079;27;20199;-61
2024/03/16 06:25:12;;;;;;;9.77;2.08;;;8.20;99.90;;;;;;5126221;27;20035;-61
2024/03/16 06:27:49;;;;;;;7.45;1.40;;;8.30;99.90;;;;;;5125843;27;20046;-63
2024/03/16 06:30:15;;;;;;;10.65;1.48;;;8.30;99.90;;;;;;5127493;27;20805;-61
2024/03/16 06:35:36;;;;;;;6.78;1.40;;;8.30;99.90;;;;;;5114689;27;20509;-61
2024/03/16 06:38:05;;;;;;;7.00;1.70;;;8.30;99.90;;;;;;5129060;27;20038;-61
2024/03/16 06:40:30;;;;;;;4.82;1.52;;;8.30;99.90;;;;;;5126312;27;20035;-61
2024/03/16 06:42:56;;;;;;;5.25;1.45;;;8.30;99.90;;;;;;5127331;27;20046;-61
2024/03/16 06:45:22;;;;;;;5.22;1.35;;;8.30;99.90;;;;;;5126754;27;20399;-61
2024/03/16 06:47:47;;;;;;;9.85;1.75;;;8.50;99.90;;;;;;5124901;27;20599;-61
2024/03/16 06:50:14;;;;;;;7.13;1.70;;;8.50;99.90;;;;;;5126978;27;20043;-62
2024/03/16 06:52:39;;;;;;;10.80;2.08;;;8.60;99.90;;;;;;5123085;27;20042;-61
2024/03/16 06:55:09;;;;;;;9.15;1.42;;;8.70;99.90;;;;;;5123107;27;20037;-62
2024/03/16 06:57:34;;;;;;;;;;;8.60;99.90;;;;;;5126792;27;20397;-62
2024/03/16 07:00:00;;;;;;;8.60;1.70;;;8.60;99.90;;;;;;5126490;27;19973;-61
2024/03/16 07:02:26;;;;;;;7.47;1.90;;;8.70;99.90;;;;;;5124814;27;20058;-61
2024/03/16 07:04:52;;;;;;;6.72;1.83;;;8.60;99.90;;;;;;5124758;27;20156;-62
2024/03/16 07:07:18;;;;;;;8.18;1.38;;;8.70;99.90;;;;;;5127707;27;20126;-61
2024/03/16 07:09:43;;;;;;;5.55;2.05;;;8.60;99.90;;;;;;5123786;27;20046;-61
2024/03/16 07:12:09;;;;;;;7.88;1.92;;;8.60;99.90;;;;;;5128080;27;20156;-62
2024/03/16 07:14:35;;;;;;;6.93;1.48;;;8.70;99.90;;;;;;5127050;27;20051;-60
2024/03/16 07:17:01;;;;;;;7.50;1.77;;;8.80;99.90;;;;;;5124554;27;20039;-62
2024/03/16 07:19:28;;;;;;;9.48;1.95;;;8.70;99.90;;;;;;5126402;27;20050;-62
2024/03/16 07:21:54;;;;;;;9.60;1.92;;;8.80;99.90;;;;;;5128721;27;20081;-62
2024/03/16 07:24:19;;;;;;;10.13;1.80;;;8.80;99.90;;;;;;5124121;27;20114;-62
2024/03/16 07:26:45;;;;;;;11.70;1.63;;;8.80;99.90;;;;;;5125542;27;20496;-62
2024/03/16 07:29:11;;;;;;;11.75;1.35;;;8.80;99.90;;;;;;5126840;27;20136;-62
2024/03/16 07:31:37;;;;;;;6.43;1.55;;;8.70;99.90;;;;;;5129023;27;20035;-61
2024/03/16 07:34:06;;;;;;;8.20;1.50;;;8.70;99.90;;;;;;5130133;27;20628;-62
2024/03/16 07:36:32;;;;;;;;;;;8.80;99.90;;;;;;5132258;27;20031;-62
2024/03/16 07:38:57;;;;;;;7.00;1.33;;;8.80;99.90;;;;;;5126718;27;20346;-62
2024/03/16 07:41:23;;;;;;;6.45;1.10;;;8.80;99.90;;;;;;5125841;27;20227;-62
2024/03/16 07:43:50;;;;;;;6.00;1.00;;;8.90;99.90;;;;;;5127960;27;20067;-62
2024/03/16 07:46:16;;;;;;;8.48;1.08;;;8.90;99.90;;;;;;5124359;27;20030;-62
2024/03/16 07:48:42;;;;;;;3.88;1.27;;;8.90;99.90;;;;;;5126312;27;20103;-62
2024/03/16 07:51:09;;;;;;;11.25;1.65;;;8.90;99.90;;;;;;5128952;27;20447;-62
2024/03/16 07:53:35;;;;;;;9.98;1.50;;;8.80;99.90;;;;;;5124666;27;20485;-62
2024/03/16 07:56:04;;;;;;;9.13;1.30;;;8.90;99.90;;;;;;5131149;27;20038;-63
2024/03/16 07:58:30;;;;;;;6.75;1.40;;;9.00;99.90;;;;;;5126493;27;20459;-61
2024/03/16 08:00:56;;;;;;;7.35;1.30;;;8.90;99.90;;;;;;5125589;27;20027;-62
2024/03/16 08:03:21;;;;;;;8.90;1.95;;;8.80;99.90;;;;;;5121724;27;20039;-61
2024/03/16 08:05:47;;;;;;;9.20;1.30;;;8.90;99.90;;;;;;5123675;27;20138;-61
2024/03/16 08:08:13;;;;;;;8.88;1.58;;;8.80;99.90;;;;;;5120037;27;20446;-61
2024/03/16 08:10:39;;;;;;;9.82;2.70;;;8.80;99.90;;;;;;5123672;27;20043;-61
2024/03/16 08:13:04;;;;;;;8.95;1.60;;;8.90;99.90;;;;;;5129365;27;20047;-61
2024/03/16 08:15:30;;;;;;;10.20;1.90;;;8.90;99.90;;;;;;5129902;27;20592;-62
2024/03/16 08:17:57;;;;;;;11.95;1.88;;;9.00;99.90;;;;;;5121549;27;20046;-62
2024/03/16 08:20:23;;;;;;;7.55;1.85;;;9.20;99.90;;;;;;5104757;27;20054;-61
2024/03/16 08:22:53;;;;;;;10.68;1.65;;;9.50;99.90;;;;;;5104916;27;20027;-61
2024/03/16 08:25:22;;;;;;;8.25;1.98;;;9.60;99.90;;;;;;5123438;27;20118;-61
2024/03/16 08:27:48;;;;;;;9.02;1.63;;;9.60;99.90;;;;;;5125485;27;20038;-61
2024/03/16 08:30:14;;;;;;;10.07;1.65;;;9.60;99.90;;;;;;5123927;27;20455;-61
2024/03/16 08:32:40;;;;;;;8.45;1.58;;;9.50;99.90;;;;;;5127979;27;20039;-61
2024/03/16 08:35:06;;;;;;;8.68;1.40;;;9.60;99.90;;;;;;5127047;27;20341;-61
2024/03/16 08:37:32;;;;;;;9.18;1.70;;;9.60;99.90;;;;;;5128817;27;20035;-61
2024/03/16 08:39:58;;;;;;;11.63;1.60;;;9.50;99.90;;;;;;5128654;27;20408;-61
2024/03/16 08:42:24;;;;;;;10.48;1.70;;;9.50;99.90;;;;;;5131373;27;20060;-61
2024/03/16 08:44:50;;;;;;;9.38;2.28;;;9.60;99.90;;;;;;5127127;27;20038;-61
2024/03/16 08:47:15;;;;;;;5.90;0.95;;;9.60;99.90;;;;;;5128391;27;20057;-61
2024/03/16 08:49:41;;;;;;;7.07;1.30;;;9.60;99.90;;;;;;5126071;27;20458;-61
2024/03/16 08:52:07;;;;;;;7.70;1.27;;;10.10;99.90;;;;;;5128793;27;20382;-61
2024/03/16 08:54:33;;;;;;;7.57;1.65;;;10.70;99.90;;;;;;5130267;27;20089;-61
2024/03/16 08:56:59;;;;;;;13.50;1.67;;;10.80;99.90;;;;;;5122806;27;20516;-62
2024/03/16 08:59:25;;;;;;;8.98;1.45;;;10.80;99.90;;;;;;5126930;27;20043;-61
2024/03/16 09:01:51;;;;;;;9.50;2.22;;;10.60;99.90;;;;;;5112731;27;20077;-60
2024/03/16 09:04:17;;;;;;;10.38;1.58;;;10.50;99.90;;;;;;5115839;27;20034;-61
2024/03/16 09:06:42;;;;;;;15.98;2.75;;;10.40;99.90;;;;;;5115824;27;20043;-61
2024/03/16 09:09:11;;;;;;;9.15;1.63;;;10.20;99.90;;;;;;5130598;27;20043;-61
2024/03/16 09:11:38;;;;;;;13.50;2.45;;;10.20;99.90;;;;;;5114768;27;20492;-61
2024/03/16 09:14:07;;;;;;;11.13;1.90;;;10.20;99.90;;;;;;5116996;27;20057;-61
2024/03/16 09:16:34;;;;;;;;;;;10.10;99.90;;;;;;5117509;27;20042;-60
2024/03/16 09:19:01;;;;;;;9.95;1.92;;;10.10;99.90;;;;;;5114602;27;19927;-61
2024/03/16 09:21:27;;;;;;;11.45;1.95;;;10.10;99.90;;;;;;5115392;27;20607;-61
2024/03/16 09:23:53;;;;;;;9.88;2.00;;;10.30;99.90;;;;;;5117214;27;20129;-61
2024/03/16 09:26:19;;;;;;;18.42;1.65;;;10.40;99.90;;;;;;5116764;27;20118;-61
2024/03/16 09:28:45;;;;;;;6.28;1.33;;;10.50;99.90;;;;;;5117346;27;20054;-61
2024/03/16 09:31:10;;;;;;;8.15;1.50;;;10.70;99.90;;;;;;5117131;27;20050;-60
2024/03/16 09:33:36;;;;;;;12.52;2.20;;;10.70;99.90;;;;;;5112907;27;20501;-63
2024/03/16 09:36:03;;;;;;;11.55;2.15;;;10.80;99.90;;;;;;5115733;27;20039;-61
2024/03/16 09:38:29;;;;;;;9.30;1.35;;;10.70;99.90;;;;;;5112093;27;20078;-61
2024/03/16 09:40:55;;;;;;;16.40;2.35;;;10.50;99.90;;;;;;5114322;27;20087;-61
2024/03/16 09:43:21;;;;;;;12.10;1.67;;;10.70;99.90;;;;;;5115625;27;20467;-61
2024/03/16 09:45:48;;;;;;;9.35;1.65;;;10.90;99.90;;;;;;5115211;27;20111;-61
2024/03/16 09:48:14;;;;;;;8.07;1.35;;;10.70;99.90;;;;;;5114485;27;20502;-61
2024/03/16 09:50:49;;;;;;;10.15;1.20;;;10.70;99.90;;;;;;5113981;27;20049;-61
2024/03/16 09:53:26;;;;;;;10.40;1.80;;;11.10;99.90;;;;;;5114906;27;20069;-62
2024/03/16 09:55:54;;;;;;;4.43;1.05;;;11.40;99.90;;;;;;5115359;27;20050;-63
2024/03/16 09:58:20;;;;;;;7.93;1.70;;;11.50;99.90;;;;;;5113606;27;20043;-62
2024/03/16 10:00:47;;;;;;;12.80;1.98;;;11.60;99.90;;;;;;5115834;27;20066;-62
2024/03/16 10:03:17;;;;;;;8.77;1.17;;;11.80;99.90;;;;;;5120244;27;20034;-62
2024/03/16 10:05:43;;;;;;;8.65;1.33;;;12.20;99.90;;;;;;5112653;27;20127;-62
2024/03/16 10:08:08;;;;;;;4.50;1.15;;;12.40;99.90;;;;;;5113807;27;20568;-61
2024/03/16 10:10:34;;;;;;;3.35;1.13;;;12.30;99.90;;;;;;5113104;27;20394;-63
2024/03/16 10:13:10;;;;;;;7.82;1.33;;;12.50;99.90;;;;;;5101631;27;21462;-62
2024/03/16 10:15:40;;;;;;;8.18;1.50;;;12.60;99.90;;;;;;5068322;28;20346;-62
2024/03/16 10:18:09;;;;;;;9.50;1.50;;;12.60;99.90;;;;;;5069238;28;20044;-62
2024/03/16 10:20:35;;;;;;;19.85;1.83;;;12.50;99.90;;;;;;5069132;28;20078;-62
2024/03/16 10:23:01;;;;;;;10.90;1.85;;;12.30;99.90;;;;;;5068879;28;20039;-63
2024/03/16 10:25:27;;;;;;;6.13;1.55;;;12.10;99.90;;;;;;5069470;28;20238;-62
2024/03/16 10:27:56;;;;;;;7.22;1.73;;;12.00;99.90;;;;;;5070195;28;20051;-62
2024/03/16 10:30:23;;;;;;;7.85;1.58;;;12.40;99.90;;;;;;5070767;28;20565;-62
2024/03/16 10:32:49;;;;;;;8.90;1.40;;;12.50;99.90;;;;;;5070494;28;20041;-62
2024/03/16 10:35:18;;;;;;;12.65;2.03;;;12.70;99.90;;;;;;5069156;28;20059;-62
2024/03/16 10:37:45;;;;;;;;;;;12.60;99.90;;;;;;5069652;28;20101;-62
2024/03/16 10:40:16;;;;;;;11.23;1.38;;;12.50;99.90;;;;;;5066706;28;19920;-62
2024/03/16 10:42:47;;;;;;;10.77;1.40;;;12.50;99.90;;;;;;5068649;28;20651;-62
2024/03/16 10:45:16;;;;;;;4.47;1.10;;;12.70;99.90;;;;;;5068634;28;20376;-62
2024/03/16 10:47:47;;;;;;;11.65;1.50;;;12.90;99.90;;;;;;5068666;28;20491;-62
2024/03/16 10:50:13;;;;;;;9.25;1.67;;;13.00;99.90;;;;;;5067872;28;20068;-62
2024/03/16 10:52:45;;;;;;;10.65;2.40;;;13.00;99.90;;;;;;5068925;28;20046;-60
2024/03/16 10:55:14;;;;;;;9.45;2.03;;;12.60;99.90;;;;;;5069793;28;20561;-62
2024/03/16 10:57:41;;;;;;;6.53;1.50;;;12.30;99.90;;;;;;5068787;28;20514;-61
2024/03/16 11:00:20;;;;;;;8.20;1.63;;;12.30;99.90;;;;;;5067903;28;20575;-62
2024/03/16 11:03:07;;;;;;;6.88;1.42;;;12.50;99.90;;;;;;5066955;28;20048;-62
2024/03/16 11:05:45;;;;;;;5.97;1.58;;;12.40;99.90;;;;;;5069363;28;20507;-62
2024/03/16 11:08:13;;;;;;;13.98;1.80;;;12.40;99.90;;;;;;5068038;28;20524;-62
2024/03/16 11:10:48;;;;;;;11.63;2.47;;;11.80;99.90;;;;;;5075003;28;20174;-62
2024/03/16 11:13:20;;;;;;;7.93;1.65;;;11.70;99.90;;;;;;5072325;28;20056;-62
2024/03/16 11:15:47;;;;;;;6.60;1.45;;;12.00;99.90;;;;;;5069325;28;20036;-62
2024/03/16 11:18:19;;;;;;;9.25;1.65;;;12.30;99.90;;;;;;5071708;28;20055;-62
2024/03/16 11:20:50;;;;;;;10.45;1.67;;;12.60;99.90;;;;;;5072789;28;20107;-62
2024/03/16 11:23:30;;;;;;;6.30;1.40;;;13.10;99.90;;;;;;5067079;28;20036;-63
2024/03/16 11:25:56;;;;;;;;;;;13.10;99.90;;;;;;5059912;28;20494;-62
2024/03/16 11:28:23;;;;;;;6.30;1.45;;;12.60;99.90;;;;;;5058719;28;20434;-62
2024/03/16 11:30:52;;;;;;;10.88;1.70;;;12.80;99.90;;;;;;5060524;28;20045;-62
2024/03/16 11:33:22;;;;;;;7.82;1.75;;;12.70;99.90;;;;;;5060014;28;20032;-62
2024/03/16 11:35:49;;;;;;;12.15;1.92;;;12.50;99.90;;;;;;5060298;28;20502;-63
2024/03/16 11:38:16;;;;;;;8.32;1.70;;;12.20;99.90;;;;;;5060480;28;20499;-62
2024/03/16 11:40:49;;;;;;;10.30;2.00;;;12.10;99.90;;;;;;5060289;28;20039;-62
2024/03/16 11:43:15;;;;;;;10.77;1.92;;;12.30;99.90;;;;;;5060675;28;20270;-62
2024/03/16 11:45:46;;;;;;;7.53;1.90;;;12.70;99.90;;;;;;5060797;28;20067;-62
2024/03/16 11:48:12;;;;;;;11.75;2.00;;;12.50;99.90;;;;;;5059459;28;20072;-62
2024/03/16 11:50:39;;;;;;;12.00;1.60;;;12.30;99.90;;;;;;5059712;28;20539;-62
2024/03/16 11:53:08;;;;;;;6.13;1.50;;;12.20;99.90;;;;;;5058493;28;20040;-62
2024/03/16 11:55:34;;;;;;;7.32;1.25;;;12.10;99.90;;;;;;5059772;28;20755;-62
2024/03/16 11:58:03;;;;;;;9.52;1.48;;;12.60;99.90;;;;;;5058716;28;20129;-62
2024/03/16 12:00:30;;;;;;;7.13;1.35;;;13.10;99.90;;;;;;5059073;28;20043;-63
2024/03/16 12:03:03;;;;;;;7.28;2.05;;;13.70;99.90;;;;;;5059471;28;20083;-62
2024/03/16 12:05:30;;;;;;;8.70;1.80;;;13.30;99.90;;;;;;5060693;28;20478;-62
2024/03/16 12:07:56;;;;;;;7.40;1.50;;;12.90;99.90;;;;;;5060183;28;20052;-62
2024/03/16 12:10:22;;;;;;;8.45;1.20;;;13.30;99.90;;;;;;5060446;28;20091;-62
2024/03/16 12:12:50;;;;;;;11.75;1.60;;;13.50;99.90;;;;;;5059887;28;20668;-62
2024/03/16 12:15:17;;;;;;;7.25;1.95;;;14.00;99.90;;;;;;5060014;28;20119;-62
2024/03/16 12:17:44;;;;;;;10.73;2.03;;;14.20;99.90;;;;;;5057607;28;20037;-62
2024/03/16 12:20:17;;;;;;;10.63;2.35;;;14.30;99.90;;;;;;5058620;28;20093;-62
2024/03/16 12:22:49;;;;;;;8.45;2.47;;;14.20;99.90;;;;;;5057928;28;20101;-62
2024/03/16 12:25:16;;;;;;;9.30;1.55;;;14.30;99.90;;;;;;5060876;28;20055;-62
2024/03/16 12:27:45;;;;;;;10.23;2.10;;;14.10;99.90;;;;;;5060214;28;20692;-62
2024/03/16 12:30:16;;;;;;;8.65;1.83;;;14.20;99.90;;;;;;5058541;28;20513;-62
2024/03/16 12:32:42;;;;;;;8.00;1.80;;;14.40;99.90;;;;;;5058717;28;20477;-62
2024/03/16 12:35:12;;;;;;;11.40;1.75;;;14.00;99.90;;;;;;5057693;28;20044;-65
2024/03/16 12:37:42;;;;;;;9.40;2.25;;;13.80;99.90;;;;;;5060371;28;20098;-62
2024/03/16 12:40:08;;;;;;;9.35;2.40;;;13.80;99.90;;;;;;5060752;28;20150;-62
2024/03/16 12:42:35;;;;;;;10.73;1.55;;;13.80;99.90;;;;;;5059223;28;20044;-62
2024/03/16 12:45:01;;;;;;;13.20;2.67;;;14.00;99.90;;;;;;5059882;28;20060;-62
2024/03/16 12:47:27;;;;;;;12.82;1.77;;;14.50;99.90;;;;;;5060263;28;20109;-62
2024/03/16 12:49:55;;;;;;;6.85;1.20;;;14.70;99.90;;;;;;5059638;28;20032;-62
2024/03/16 12:52:23;;;;;;;14.35;2.58;;;14.40;99.90;;;;;;5060009;28;20106;-62